Aérodrome :
LOGIN :

S'inscrire | Disclaimer

   EN    FR    IT 

 










Légende :    VFR   VFR Marginal   IFR   IFR Intensif   IFR Très Intensif
Visi : 
Plafond : 
>= 8 km
>= 3000ft
5 à 8 km
1000 à 3000 ft
1500m à 5 km
500 à 1000 ft
800 à 1500m
200 à 500 ft
< 800m
< 200 ft
Symboles :   Orages  Brouillard  Fortes neiges  Fortes précipitations  Vent > 20 kt
SIGMETs :   Divers  Orages  Givrage  Turbulence  Onde Orograph.  Cendres Volcan.







- Altitude de l'aérodrome : 295 ft
- Code IATA : BWE


EDVE - Braunschweig

DERNIER METAR :
  • 270750Z 26009KT 9999 OVC012 16/13 Q1007

METARs EXPIRÉS :
  • 270720Z 25009KT 9999 OVC015 15/12 Q1007
  • 270650Z 26009KT 9999 FEW012 OVC017 15/13 Q1007
  • 270620Z 26008KT 9999 -RA OVC022 15/12 Q1007
  • 270550Z 26006KT 9999 -RA OVC021 15/12 Q1007
  • 270520Z 26007KT 9999 OVC023 15/12 Q1007

TAF TAF EDVE
Valide du 27 à 06h jusqu'au 27 à 15h UTC


270535Z 2706/2715 26009KT 9999 BKN013
PROB30
TEMPO 2706/2708 3500 DZRA BKN008
BECMG 2708/2710 BKN020
Pas de NOTAMs connus pour ce terrain.



MET'MAP, la Météo Aéronautique d'un coup d'oeil ! - Copyright ORBIFLY Décembre 2007 - Disclaimer

ORBIFLY MET'MAP TEAM :

Programmation & Développement : Alexandra Zaïnal
Conception & Développement : Baudouin d'Aumeries
Co-Programmation & Développement : Marc-Olivier Méhu
Soutien technique & logistique : Manuel Goepfert

Contact : metmap@orbifly.com




SOURCES & CREDITS :

   NOAA